Airfield :
LOGIN :

Register | Disclaimer

   EN    FR    IT 

 










Legend :    VFR   Marginal VFR   IFR   Intensive IFR   Very Intensive IFR
Visi :
Ceiling :
>= 8 km
>= 3000ft
5 to 8 km
1000 to 3000 ft
1500m to 5 km
500 to 1000 ft
800 to 1500m
200 to 500 ft
< 800m
< 200 ft
Symbols :   Thunderstorms  Fog  Heavy snow  Heavy precipitations  Wind > 20 kt
SIGMETs :     Misc.  Thunderstorms  Icing  Turbulence  Mountain Waves  Volcanic Ashes







- Airport Elevation : 1036 ft
- IATA code : CLJ


LRCL - Cluj-Napoca International

CURRENT METAR :
  • 231430Z 08004KT 8000 -RA FEW028 OVC033 12/09 Q1006 R07/19//95

EXPIRED METARs :
  • 231400Z 10004KT 9999 -RA BKN033 BKN067 12/09 Q1006 R07/19//95
  • 231330Z 12008KT 9999 -RA SCT047 BKN067 13/09 Q1005 R07/19//95
  • 231300Z 13006KT 090V150 9999 -RA SCT043 BKN067 13/09 Q1005 R07/19//95
  • 231230Z 12005KT 9999 -RA SCT044 BKN066 13/08 Q1005 R07/19//95
  • 231200Z 11009KT 9999 FEW045 BKN066 13/09 Q1005 R07/19//95

TAF TAF LRCL
Valid from the 23 at 15:00 until the 24 at 00:00 UTC


231400Z 2315/2324 10007KT 9999 -RA BKN035 OVC060
TEMPO 2316/2320 5000 RA SCT015 FEW050CB OVC060
BECMG 2321/2323 5000 RA BKN010 OVC050
No reported NOTAMs for that airfield.



MET'MAP, your aeronautical weather chart ! - Copyright ORBIFLY December 2007 - Disclaimer

ORBIFLY MET'MAP TEAM :

Programming & Development : Alexandra Zaïnal
Concept & Development : Baudouin d'Aumeries
Co-Development & Prog : Marc-Olivier Méhu
Technical & hardware support : Manuel Goepfert

Contact : metmap@orbifly.com




SOURCES & CREDITS :

   NOAA